This is the latest recevied weather packets stored in our database for station/object 9W2CHF-3. If no packets are shown the sender has not sent any weather packets the latest 1 day(s).
| Time | Temp. | Humidity | Pressure | Rain* | Wind** | Luminosity | Snow |
|---|---|---|---|---|---|---|---|
| 1777895219 | 31.67° C | 87% | 1009.4 hPa | - | - | - | - |
| 1777894019 | 31.11° C | 91% | 1009.1 hPa | - | - | - | - |
| 1777892819 | 32.78° C | 81% | 1008.7 hPa | - | - | - | - |
| 1777891619 | 32.78° C | 78% | 1008.9 hPa | - | - | - | - |
| 1777890419 | 32.78° C | 77% | 1009.2 hPa | - | - | - | - |
| 1777889218 | 32.78° C | 74% | 1008.6 hPa | - | - | - | - |
| 1777888018 | 32.78° C | 75% | 1008.5 hPa | - | - | - | - |
| 1777886818 | 33.33° C | 68% | 1008.5 hPa | - | - | - | - |
| 1777885618 | 36.67° C | 52% | 1008.3 hPa | - | - | - | - |
| 1777884417 | 39.44° C | 47% | 1008.3 hPa | - | - | - | - |
| 1777883217 | 39.44° C | 47% | 1008.4 hPa | - | - | - | - |
| 1777882017 | 40° C | 47% | 1008.5 hPa | - | - | - | - |
| 1777880817 | 38.33° C | 48% | 1008.8 hPa | - | - | - | - |
| 1777879617 | 38.33° C | 48% | 1009 hPa | - | - | - | - |
| 1777878417 | 38.89° C | 48% | 1009.4 hPa | - | - | - | - |
| 1777877217 | 39.44° C | 51% | 1009.8 hPa | - | - | - | - |
| 1777876020 | 38.33° C | 52% | 1010 hPa | - | - | - | - |
| 1777874820 | 37.78° C | 51% | 1010.6 hPa | - | - | - | - |
| 1777873620 | 37.22° C | 54% | 1011.2 hPa | - | - | - | - |
| 1777872420 | 34.44° C | 63% | 1011.6 hPa | - | - | - | - |
| 1777871219 | 31.67° C | 81% | 1011.9 hPa | - | - | - | - |
| 1777870019 | 31.11° C | 83% | 1012.2 hPa | - | - | - | - |
| 1777868819 | 32.22° C | 79% | 1012.4 hPa | - | - | - | - |
| 1777867619 | 37.22° C | 58% | 1012.2 hPa | - | - | - | - |
| 1777866418 | 34.44° C | 67% | 1012.4 hPa | - | - | - | - |
* Rain since midnight (hover to see other rain measurements)
** Current wind speed in m/s (hover to see current wind gust speed)